Time;durP1;ratioP1;P1;durP2;ratioP2;P2;SDS_P1;SDS_P2;PMS_P1;PMS_P2;Temp;Humidity;BMP_temperature;BMP_pressure;BME280_temperature;BME280_humidity;BME280_pressure;Samples;Min_cycle;Max_cycle;Signal;HPM_P1;HPM_P2
2022/08/26 00:00:28;;;;;;;12.63;6.63;;;;;;;20.67;81.54;101246.63;4979289;28;20085;-90
2022/08/26 00:02:53;;;;;;;12.90;6.25;;;;;;;20.61;81.46;101248.88;4991512;28;20311;-92
2022/08/26 00:05:19;;;;;;;11.77;6.13;;;;;;;20.70;81.50;101249.06;4986117;28;20023;-92
2022/08/26 00:07:46;;;;;;;14.90;6.18;;;;;;;20.59;81.98;101258.97;4984799;28;20039;-91
2022/08/26 00:10:11;;;;;;;11.90;6.07;;;;;;;20.51;82.47;101256.06;4986824;28;20030;-91
2022/08/26 00:12:38;;;;;;;11.55;5.70;;;;;;;20.50;82.34;101258.91;4984084;28;20019;-91
2022/08/26 00:15:07;;;;;;;10.98;6.00;;;;;;;20.41;82.90;101263.22;4982943;28;20022;-90
2022/08/26 00:17:32;;;;;;;9.70;6.40;;;;;;;20.43;82.62;101254.97;4989230;28;20043;-88
2022/08/26 00:19:58;;;;;;;12.00;6.95;;;;;;;20.38;82.88;101260.78;4977882;28;21157;-91
2022/08/26 00:22:23;;;;;;;10.93;6.55;;;;;;;20.36;83.23;101269.03;4978517;28;20073;-90
2022/08/26 00:24:49;;;;;;;15.95;7.50;;;;;;;20.30;83.33;101255.16;4976753;28;20468;-91
2022/08/26 00:27:14;;;;;;;13.63;7.28;;;;;;;20.20;83.57;101248.84;4979450;28;20603;-91
2022/08/26 00:29:39;;;;;;;11.05;6.75;;;;;;;20.16;83.61;101245.53;4980907;28;20042;-93
2022/08/26 00:32:05;;;;;;;9.68;7.15;;;;;;;20.20;84.10;101256.97;4988191;28;20037;-91
2022/08/26 00:34:31;;;;;;;15.45;7.93;;;;;;;20.19;83.60;101257.91;5003868;28;20038;-92
2022/08/26 00:36:56;;;;;;;11.90;8.30;;;;;;;20.22;84.04;101268.47;4976833;28;20082;-92
2022/08/26 00:39:22;;;;;;;15.30;8.65;;;;;;;20.21;83.79;101270.31;4980644;28;20121;-92
2022/08/26 00:41:47;;;;;;;16.38;8.75;;;;;;;20.16;83.89;101269.88;4986948;28;21330;-90
2022/08/26 00:44:13;;;;;;;15.35;9.23;;;;;;;20.15;83.47;101271.72;4975942;28;20042;-90
2022/08/26 00:46:43;;;;;;;13.65;9.15;;;;;;;20.20;83.90;101279.44;4984325;28;20030;-93
2022/08/26 00:49:15;;;;;;;13.30;8.98;;;;;;;20.24;83.76;101280.88;4978524;28;20034;-91
2022/08/26 00:51:51;;;;;;;14.93;10.07;;;;;;;20.23;83.53;101281.88;4976555;28;20081;-91
2022/08/26 00:54:19;;;;;;;13.88;9.73;;;;;;;20.20;83.46;101279.44;4985697;28;20078;-91
2022/08/26 00:56:53;;;;;;;14.55;9.45;;;;;;;20.17;83.69;101279.69;4983493;28;20145;-91
2022/08/26 00:59:19;;;;;;;14.80;9.63;;;;;;;20.00;83.98;101256.78;4976133;28;20026;-92
2022/08/26 01:01:45;;;;;;;14.38;9.30;;;;;;;20.11;84.15;101280.22;4981082;28;20251;-90
2022/08/26 01:04:13;;;;;;;15.32;9.20;;;;;;;20.07;83.80;101278.75;4987266;28;20395;-89
2022/08/26 01:06:39;;;;;;;12.38;9.00;;;;;;;20.06;83.58;101277.88;4986592;28;20034;-92
2022/08/26 01:09:05;;;;;;;14.93;9.27;;;;;;;20.14;83.58;101279.94;4988948;28;20037;-91
2022/08/26 01:11:32;;;;;;;13.38;9.05;;;;;;;20.05;83.86;101256.41;4990089;28;20039;-91
2022/08/26 01:14:01;;;;;;;12.85;9.55;;;;;;;19.93;83.82;101260.97;4990693;28;20077;-92
2022/08/26 01:16:27;;;;;;;13.27;9.63;;;;;;;19.94;84.20;101267.22;4985055;28;20058;-90
2022/08/26 01:18:58;;;;;;;13.35;9.23;;;;;;;19.90;84.35;101272.91;4986510;28;20069;-91
2022/08/26 01:21:48;;;;;;;13.35;9.35;;;;;;;19.99;83.73;101279.41;4981209;28;20034;-90
2022/08/26 01:24:14;;;;;;;13.90;9.23;;;;;;;19.94;84.76;101272.63;4987942;28;20188;-89
2022/08/26 01:26:41;;;;;;;14.70;9.63;;;;;;;19.95;84.61;101285.19;4986352;28;20519;-91
2022/08/26 01:29:11;;;;;;;13.13;9.70;;;;;;;19.90;84.96;101278.31;4982348;28;20019;-92
2022/08/26 01:31:45;;;;;;;16.00;9.18;;;;;;;19.95;84.41;101283.34;4985083;28;20500;-93
2022/08/26 01:34:16;;;;;;;14.18;8.75;;;;;;;19.93;84.96;101285.28;4987748;28;20495;-91
2022/08/26 01:36:43;;;;;;;13.60;8.60;;;;;;;19.94;84.65;101262.72;4981834;28;20120;-91
2022/08/26 01:39:08;;;;;;;16.88;9.15;;;;;;;19.99;84.75;101274.00;4985825;28;20388;-91
2022/08/26 01:41:35;;;;;;;14.95;8.93;;;;;;;19.98;84.32;101276.78;4982485;28;20045;-90
2022/08/26 01:44:03;;;;;;;13.35;9.10;;;;;;;19.97;84.59;101283.19;4988978;28;20031;-90
2022/08/26 01:46:30;;;;;;;16.13;9.30;;;;;;;19.99;84.47;101275.84;4979269;28;20101;-89
2022/08/26 01:48:58;;;;;;;14.70;9.02;;;;;;;20.03;84.12;101280.00;4983560;28;20029;-92
2022/08/26 01:51:26;;;;;;;13.32;8.90;;;;;;;20.04;84.29;101274.47;4999537;28;20056;-93
2022/08/26 01:53:52;;;;;;;14.85;9.70;;;;;;;20.06;84.07;101282.41;4989693;28;20053;-92
2022/08/26 01:56:18;;;;;;;12.10;8.27;;;;;;;20.17;83.86;101287.78;4983849;28;20034;-91
2022/08/26 01:58:47;;;;;;;12.95;7.97;;;;;;;20.08;84.27;101280.47;4980698;28;20090;-92
2022/08/26 02:01:13;;;;;;;13.18;8.40;;;;;;;20.09;83.95;101284.88;4983935;28;20023;-89
2022/08/26 02:03:51;;;;;;;13.32;7.28;;;;;;;20.06;83.31;101277.00;4980324;28;20480;-91
2022/08/26 02:06:21;;;;;;;14.38;7.30;;;;;;;20.04;83.71;101279.84;4980251;28;20034;-89
2022/08/26 02:08:50;;;;;;;10.38;7.40;;;;;;;19.99;83.77;101282.09;4991137;28;20494;-90
2022/08/26 02:11:16;;;;;;;11.77;7.47;;;;;;;19.99;83.98;101283.94;4985223;28;20038;-92
2022/08/26 02:14:01;;;;;;;10.30;6.78;;;;;;;19.98;84.00;101282.19;4987971;28;20039;-91
2022/08/26 02:16:31;;;;;;;12.18;6.93;;;;;;;20.05;83.63;101292.38;4979132;28;20145;-91
2022/08/26 02:18:58;;;;;;;12.80;6.43;;;;;;;20.05;83.01;101284.28;4986863;28;20487;-93
2022/08/26 02:21:23;;;;;;;9.45;6.15;;;;;;;20.08;83.43;101294.84;4989677;28;20026;-91
2022/08/26 02:23:49;;;;;;;9.48;5.93;;;;;;;20.08;83.55;101292.13;4987863;28;20037;-91
2022/08/26 02:26:19;;;;;;;11.23;5.55;;;;;;;20.07;83.50;101290.41;4974205;28;20090;-93
2022/08/26 02:29:10;;;;;;;9.35;5.30;;;;;;;20.15;82.53;101300.59;4990706;28;20034;-91
2022/08/26 02:31:35;;;;;;;10.00;4.40;;;;;;;20.13;82.50;101310.66;4985881;28;20053;-92
2022/08/26 02:34:12;;;;;;;8.63;5.43;;;;;;;20.04;82.71;101304.19;4986897;28;20019;-91
2022/08/26 02:36:38;;;;;;;10.48;4.25;;;;;;;19.98;82.63;101298.41;4980529;28;20436;-91
2022/08/26 02:39:04;;;;;;;9.77;4.53;;;;;;;20.06;83.12;101314.84;4981700;28;20022;-92
2022/08/26 02:41:29;;;;;;;6.50;4.13;;;;;;;20.13;82.63;101313.34;4983249;28;20034;-91
2022/08/26 02:43:54;;;;;;;8.43;4.40;;;;;;;20.15;82.60;101308.69;4974646;28;20377;-92
2022/08/26 02:46:20;;;;;;;13.20;4.55;;;;;;;20.07;82.32;101301.22;5000326;28;20131;-92
2022/08/26 02:48:45;;;;;;;10.45;4.03;;;;;;;20.09;82.60;101307.34;5004430;28;20288;-92
2022/08/26 02:51:10;;;;;;;6.45;3.67;;;;;;;20.09;82.29;101303.78;4990777;28;20077;-92
2022/08/26 02:53:36;;;;;;;8.70;3.50;;;;;;;20.00;83.03;101304.56;4992856;28;20089;-93
2022/08/26 02:56:03;;;;;;;8.77;3.33;;;;;;;20.02;82.56;101310.69;4970880;28;20113;-92
2022/08/26 02:58:29;;;;;;;7.75;3.50;;;;;;;19.97;82.90;101296.72;4969329;28;20085;-94
2022/08/26 03:00:54;;;;;;;8.52;3.58;;;;;;;20.03;82.67;101301.63;4979042;28;20030;-94
2022/08/26 03:03:19;;;;;;;6.25;3.40;;;;;;;19.98;82.61;101307.41;4991745;28;20373;-92
2022/08/26 03:05:44;;;;;;;5.97;3.38;;;;;;;19.97;82.85;101308.38;4992054;28;20031;-92
2022/08/26 03:08:10;;;;;;;6.72;3.35;;;;;;;19.95;82.75;101312.19;4988619;28;20494;-94
2022/08/26 03:10:37;;;;;;;7.95;3.17;;;;;;;19.90;82.54;101305.34;4995278;28;20037;-91
2022/08/26 03:13:02;;;;;;;6.60;2.70;;;;;;;19.84;82.85;101310.38;4982212;28;20025;-92
2022/08/26 03:15:28;;;;;;;9.35;3.20;;;;;;;19.83;82.91;101314.91;4997338;28;20041;-91
2022/08/26 03:17:54;;;;;;;7.22;3.30;;;;;;;19.77;83.10;101310.03;4992582;28;20054;-93
2022/08/26 03:20:19;;;;;;;6.72;2.55;;;;;;;19.74;83.62;101307.59;4995657;28;20109;-92
2022/08/26 03:22:45;;;;;;;7.45;3.15;;;;;;;19.72;83.39;101312.22;5012715;28;20046;-91
2022/08/26 03:25:14;;;;;;;7.00;3.20;;;;;;;19.68;83.50;101307.22;5001412;28;20039;-93
2022/08/26 03:27:39;;;;;;;5.18;2.30;;;;;;;19.66;83.38;101301.94;4990358;28;20113;-92
2022/08/26 03:32:49;;;;;;;7.45;2.20;;;;;;;19.71;83.55;101305.13;5003063;28;20534;-90
2022/08/26 03:35:15;;;;;;;4.65;2.05;;;;;;;19.72;83.08;101314.94;5013064;28;20026;-91
2022/08/26 03:37:40;;;;;;;6.72;2.30;;;;;;;19.78;83.09;101319.00;5011888;28;20030;-91
2022/08/26 03:40:08;;;;;;;7.15;2.33;;;;;;;19.83;82.59;101308.66;5007407;28;20085;-93
2022/08/26 03:42:35;;;;;;;8.25;2.80;;;;;;;19.83;82.84;101308.66;5006662;28;20042;-93
2022/08/26 03:45:01;;;;;;;6.30;2.47;;;;;;;19.83;82.76;101309.53;4995460;28;20023;-93
2022/08/26 03:47:26;;;;;;;7.22;3.15;;;;;;;19.83;82.77;101314.06;4989842;28;20058;-92
2022/08/26 03:49:52;;;;;;;5.78;2.40;;;;;;;19.83;82.76;101314.91;4990409;28;20055;-94
2022/08/26 03:52:17;;;;;;;5.22;2.45;;;;;;;19.84;82.53;101313.94;4992752;28;20042;-95
2022/08/26 03:54:42;;;;;;;6.10;2.45;;;;;;;19.86;82.61;101319.22;4992090;28;20611;-93
2022/08/26 03:57:07;;;;;;;9.15;2.83;;;;;;;19.89;82.16;101309.00;4987801;28;20037;-91
2022/08/26 03:59:33;;;;;;;10.45;3.58;;;;;;;19.94;82.51;101322.16;4982263;28;20053;-93
2022/08/26 04:01:58;;;;;;;7.20;3.05;;;;;;;19.87;82.18;101310.13;4987404;28;20113;-92
2022/08/26 04:04:23;;;;;;;6.72;3.20;;;;;;;19.93;82.32;101319.56;4979917;28;20034;-93
2022/08/26 04:06:49;;;;;;;7.18;3.35;;;;;;;19.85;82.43;101314.78;4985763;28;20371;-93
2022/08/26 04:09:19;;;;;;;5.07;3.22;;;;;;;19.88;82.75;101320.78;4986660;28;20096;-93
2022/08/26 04:11:45;;;;;;;5.25;3.20;;;;;;;19.87;82.78;101327.19;4987619;28;20027;-92
2022/08/26 04:14:14;;;;;;;5.65;3.15;;;;;;;19.91;82.76;101325.09;4982731;28;20464;-91
2022/08/26 04:16:41;;;;;;;7.20;3.00;;;;;;;19.90;82.69;101323.38;4973405;28;20027;-89
2022/08/26 04:19:07;;;;;;;7.97;3.42;;;;;;;19.88;82.79;101312.69;4992032;28;20046;-92
2022/08/26 04:21:33;;;;;;;11.13;3.10;;;;;;;19.85;83.10;101318.34;4974052;28;20065;-90
2022/08/26 04:23:59;;;;;;;8.15;3.33;;;;;;;19.80;83.15;101303.50;4975175;28;20026;-90
2022/08/26 04:26:24;;;;;;;8.40;2.97;;;;;;;19.76;83.03;101299.34;4982934;28;20038;-92
2022/08/26 04:28:53;;;;;;;6.65;3.38;;;;;;;19.77;83.47;101310.03;4976318;28;20042;-92
2022/08/26 04:31:18;;;;;;;3.83;2.90;;;;;;;19.86;82.99;101303.03;4978935;28;20027;-93
2022/08/26 04:33:45;;;;;;;8.43;3.67;;;;;;;19.85;83.18;101298.56;4992196;28;20045;-93
2022/08/26 04:36:10;;;;;;;8.07;3.40;;;;;;;19.82;82.97;101307.81;4971708;28;20054;-93
2022/08/26 04:38:36;;;;;;;6.03;3.00;;;;;;;19.88;82.54;101310.00;4993638;28;20085;-92
2022/08/26 04:41:03;;;;;;;5.40;2.78;;;;;;;19.88;82.38;101312.69;4990898;28;20226;-93
2022/08/26 04:43:30;;;;;;;6.75;3.35;;;;;;;19.82;82.91;101317.75;4993510;28;20065;-92
2022/08/26 04:46:01;;;;;;;6.88;3.00;;;;;;;19.82;82.50;101315.91;4987337;28;20025;-91
2022/08/26 04:48:28;;;;;;;6.80;3.25;;;;;;;19.85;82.47;101317.47;4991421;28;20069;-95
2022/08/26 04:50:54;;;;;;;8.15;2.72;;;;;;;19.90;82.65;101324.25;4991300;28;20113;-92
2022/08/26 04:53:19;;;;;;;8.75;3.13;;;;;;;19.88;82.39;101310.00;4983061;28;20122;-93
2022/08/26 04:55:44;;;;;;;8.18;3.38;;;;;;;19.88;82.78;101320.78;4987962;28;20045;-93
2022/08/26 04:58:13;;;;;;;4.57;2.45;;;;;;;19.87;82.08;101318.22;4986413;28;20027;-93
2022/08/26 05:00:39;;;;;;;6.07;2.83;;;;;;;19.87;82.14;101320.94;4986975;28;20031;-94
2022/08/26 05:03:04;;;;;;;8.77;2.60;;;;;;;19.88;82.27;101322.66;4971692;28;20522;-93
2022/08/26 05:05:30;;;;;;;7.05;2.60;;;;;;;19.89;82.22;101314.41;4982624;28;20049;-92
2022/08/26 05:07:56;;;;;;;8.27;2.80;;;;;;;19.85;82.22;101318.34;4971293;28;20453;-95
2022/08/26 05:10:22;;;;;;;7.38;2.50;;;;;;;19.92;82.31;101324.09;4983290;28;20117;-93
2022/08/26 05:12:47;;;;;;;11.82;2.88;;;;;;;19.89;82.20;101324.34;4981040;28;20030;-92
2022/08/26 05:15:13;;;;;;;5.13;2.40;;;;;;;19.88;81.91;101328.03;4976449;28;20045;-94
2022/08/26 05:17:38;;;;;;;5.90;2.80;;;;;;;19.80;82.06;101325.13;4975547;28;20108;-92
2022/08/26 05:20:04;;;;;;;10.20;2.88;;;;;;;19.79;82.16;101318.00;4979860;28;20085;-92
2022/08/26 05:22:29;;;;;;;4.57;2.65;;;;;;;19.86;82.16;101332.72;4973394;28;20051;-96
2022/08/26 05:24:54;;;;;;;7.30;2.70;;;;;;;19.84;82.40;101331.97;4983108;28;20046;-92
2022/08/26 05:27:20;;;;;;;6.43;2.80;;;;;;;19.86;82.38;101333.59;4979740;28;20026;-92
2022/08/26 05:29:45;;;;;;;6.63;2.72;;;;;;;19.84;82.50;101332.84;4984872;28;20042;-93
2022/08/26 05:32:11;;;;;;;6.18;2.60;;;;;;;19.81;82.67;101333.09;4987667;28;20033;-95
2022/08/26 05:34:36;;;;;;;4.82;2.47;;;;;;;19.78;82.49;101324.41;4979962;28;20093;-93
2022/08/26 05:37:03;;;;;;;7.93;2.95;;;;;;;19.88;82.22;101338.84;4985619;28;20029;-93
2022/08/26 05:39:33;;;;;;;7.20;2.47;;;;;;;19.87;82.20;101334.44;4981366;28;20042;-94
2022/08/26 05:41:58;;;;;;;10.45;2.65;;;;;;;19.85;82.22;101331.84;4989093;28;20038;-94
2022/08/26 05:44:24;;;;;;;8.15;2.40;;;;;;;19.87;82.10;101339.84;4986666;28;20121;-94
2022/08/26 05:46:50;;;;;;;9.15;2.88;;;;;;;19.95;82.37;101350.03;4986614;28;20503;-93
2022/08/26 05:49:15;;;;;;;6.43;2.60;;;;;;;19.97;82.10;101346.19;4979423;28;20436;-95
2022/08/26 05:51:43;;;;;;;6.60;2.50;;;;;;;20.02;81.75;101351.22;4987775;28;20018;-92
2022/08/26 05:54:10;;;;;;;6.35;2.35;;;;;;;20.03;81.64;101350.25;4983555;28;20030;-91
2022/08/26 05:56:35;;;;;;;4.97;2.30;;;;;;;19.96;80.98;101338.22;4978500;28;20026;-92
2022/08/26 05:59:01;;;;;;;6.97;2.60;;;;;;;20.00;81.38;101337.84;4998396;28;20027;-89
2022/08/26 06:01:28;;;;;;;15.75;8.95;;;;;;;20.12;80.87;101361.16;4978108;28;20038;-93
2022/08/26 06:03:57;;;;;;;7.93;2.80;;;;;;;20.13;80.55;101370.97;4983006;28;20108;-93
2022/08/26 06:06:25;;;;;;;7.25;2.58;;;;;;;19.98;80.88;101344.34;4978050;28;20034;-90
2022/08/26 06:08:51;;;;;;;9.38;2.65;;;;;;;20.09;81.20;101360.53;4988141;28;20023;-89
2022/08/26 06:11:20;;;;;;;6.45;2.55;;;;;;;20.14;80.87;101372.66;4981370;28;20026;-90
2022/08/26 06:13:46;;;;;;;12.50;6.28;;;;;;;20.16;80.39;101372.56;4984696;28;20361;-89
2022/08/26 06:16:14;;;;;;;7.72;3.13;;;;;;;20.13;80.43;101364.69;4980749;28;20077;-92
2022/08/26 06:18:42;;;;;;;5.70;2.13;;;;;;;20.08;80.27;101353.44;4979073;28;20050;-90
2022/08/26 06:21:15;;;;;;;8.95;2.70;;;;;;;20.14;80.54;101375.38;4984481;28;20461;-90
2022/08/26 06:26:25;;;;;;;4.35;2.40;;;;;;;20.14;80.24;101382.63;4984628;28;20069;-92
2022/08/26 06:28:51;;;;;;;6.28;2.15;;;;;;;20.17;80.06;101386.94;4975305;28;20031;-90
2022/08/26 06:31:17;;;;;;;8.55;2.35;;;;;;;20.13;80.03;101372.81;4976965;28;20029;-90
2022/08/26 06:33:43;;;;;;;5.22;2.00;;;;;;;20.24;79.90;101385.44;4988533;28;20035;-91
2022/08/26 06:36:14;;;;;;;7.80;1.92;;;;;;;20.24;80.00;101380.03;4996514;28;20113;-92
2022/08/26 06:38:40;;;;;;;6.00;1.92;;;;;;;20.29;79.43;101375.97;4986122;28;20053;-92
2022/08/26 06:41:10;;;;;;;6.22;2.10;;;;;;;20.28;79.61;101382.34;4986170;28;20034;-89
2022/08/26 06:43:37;;;;;;;4.43;1.60;;;;;;;20.34;78.88;101371.03;4987395;28;20031;-91
2022/08/26 06:46:08;;;;;;;6.50;1.65;;;;;;;20.46;78.72;101388.06;4979879;28;20436;-93
2022/08/26 06:48:33;;;;;;;11.82;2.35;;;;;;;20.56;78.47;101399.00;4981205;28;20022;-89
2022/08/26 06:51:06;;;;;;;7.15;1.88;;;;;;;20.56;77.85;101388.16;4988896;28;20434;-90
2022/08/26 06:53:31;;;;;;;8.32;1.75;;;;;;;20.71;77.37;101394.16;4985236;28;20408;-91
2022/08/26 06:55:56;;;;;;;6.40;1.73;;;;;;;20.72;77.11;101388.59;4988559;28;20034;-91
2022/08/26 06:58:22;;;;;;;10.85;4.45;;;;;;;20.85;76.74;101397.38;4972256;28;20038;-91
2022/08/26 07:00:47;;;;;;;6.85;2.38;;;;;;;20.86;75.96;101385.59;4971578;28;20030;-91
2022/08/26 07:03:12;;;;;;;4.75;1.80;;;;;;;20.94;75.60;101392.16;4985800;28;20022;-90
2022/08/26 07:05:38;;;;;;;7.40;3.00;;;;;;;21.03;75.42;101394.09;4989880;28;20099;-90
2022/08/26 07:08:04;;;;;;;8.95;4.80;;;;;;;21.11;75.21;101391.59;4986691;28;20033;-93
2022/08/26 07:10:30;;;;;;;5.85;2.92;;;;;;;21.21;75.13;101384.38;4995326;28;20034;-92
2022/08/26 07:12:55;;;;;;;4.55;1.35;;;;;;;21.36;74.65;101376.78;4993433;28;20110;-93
2022/08/26 07:15:20;;;;;;;4.38;1.40;;;;;;;21.30;73.56;101402.50;4973564;28;20067;-92
2022/08/26 07:17:46;;;;;;;3.92;1.63;;;;;;;21.22;74.39;101396.91;4991171;28;20089;-90
2022/08/26 07:20:11;;;;;;;4.28;1.85;;;;;;;21.20;74.14;101398.91;4989656;28;20113;-92
2022/08/26 07:22:37;;;;;;;4.95;1.55;;;;;;;21.38;73.45;101402.75;4991587;28;20096;-92
2022/08/26 07:25:08;;;;;;;5.22;1.60;;;;;;;21.45;73.14;101404.91;4995751;28;20105;-91
2022/08/26 07:27:35;;;;;;;4.70;1.40;;;;;;;21.58;72.96;101403.69;5003852;28;20027;-91
2022/08/26 07:30:03;;;;;;;8.05;1.80;;;;;;;21.68;72.25;101398.31;5003249;28;20030;-92
2022/08/26 07:32:29;;;;;;;5.50;1.52;;;;;;;21.85;71.81;101394.09;5007530;28;20010;-91
2022/08/26 07:34:54;;;;;;;4.13;1.90;;;;;;;22.07;71.02;101406.56;5005610;28;20049;-92
2022/08/26 07:37:19;;;;;;;8.00;2.75;;;;;;;22.04;70.38;101407.72;5011775;28;20018;-92
2022/08/26 07:39:45;;;;;;;4.00;1.10;;;;;;;22.04;70.05;101401.44;5006753;28;20094;-90
2022/08/26 07:42:13;;;;;;;5.53;1.63;;;;;;;22.18;69.81;101417.31;5009915;28;20033;-91
2022/08/26 07:44:39;;;;;;;7.78;1.70;;;;;;;22.16;69.70;101411.19;5013232;28;20042;-91
2022/08/26 07:47:06;;;;;;;4.82;1.73;;;;;;;22.26;68.75;101414.78;5010726;28;20026;-93
2022/08/26 07:49:31;;;;;;;17.48;10.32;;;;;;;22.36;67.89;101412.94;4998709;28;20022;-94
2022/08/26 07:51:57;;;;;;;4.45;1.80;;;;;;;22.44;67.77;101408.66;4984128;28;20049;-94
2022/08/26 07:54:23;;;;;;;6.55;1.50;;;;;;;22.46;67.46;101425.66;4992526;28;20041;-94
2022/08/26 07:56:49;;;;;;;5.60;1.40;;;;;;;22.38;67.58;101424.50;5002239;28;20066;-95
2022/08/26 07:59:17;;;;;;;7.15;1.40;;;;;;;22.30;67.78;101416.22;4996356;28;20468;-94
2022/08/26 08:01:43;;;;;;;5.43;1.40;;;;;;;22.36;67.67;101423.81;4976498;28;20038;-94
2022/08/26 08:04:09;;;;;;;5.55;1.40;;;;;;;22.33;67.69;101426.78;4996647;28;20035;-94
2022/08/26 08:06:34;;;;;;;4.07;1.60;;;;;;;22.37;67.22;101424.66;5001562;28;20027;-96
2022/08/26 08:09:00;;;;;;;4.50;1.40;;;;;;;22.43;67.29;101428.66;4995451;28;20027;-95
2022/08/26 08:11:28;;;;;;;6.47;1.33;;;;;;;22.41;66.84;101428.81;5002724;28;20031;-96
2022/08/26 08:13:54;;;;;;;6.07;1.60;;;;;;;22.42;66.95;101435.06;4989230;28;20030;-95
2022/08/26 08:16:19;;;;;;;3.63;1.23;;;;;;;22.42;66.91;101422.38;4980542;28;20542;-96
2022/08/26 08:18:45;;;;;;;4.80;1.50;;;;;;;22.52;66.36;101428.66;4989696;28;20046;-96
2022/08/26 08:21:11;;;;;;;6.90;1.50;;;;;;;22.61;65.71;101435.97;5020873;28;20046;-95
2022/08/26 08:23:37;;;;;;;5.00;1.40;;;;;;;22.51;66.35;101435.06;4997159;28;20113;-96
2022/08/26 08:26:08;;;;;;;3.63;1.27;;;;;;;22.53;66.33;101433.09;4999501;28;20054;-95
2022/08/26 08:28:34;;;;;;;6.28;1.52;;;;;;;22.50;66.32;101427.94;4996580;28;20038;-95
2022/08/26 08:31:00;;;;;;;5.47;1.60;;;;;;;22.63;64.96;101424.97;5005806;28;20030;-95
2022/08/26 08:33:29;;;;;;;3.70;1.27;;;;;;;22.72;65.08;101431.38;4998150;28;20041;-94
2022/08/26 08:35:57;;;;;;;6.25;1.63;;;;;;;22.83;64.61;101448.38;4989417;28;20101;-95
2022/08/26 08:38:23;;;;;;;4.80;1.48;;;;;;;22.57;64.56;101444.50;4992463;28;20071;-94
2022/08/26 08:40:49;;;;;;;4.32;1.25;;;;;;;22.54;64.70;101442.94;4985206;28;20023;-95
2022/08/26 08:43:25;;;;;;;5.30;1.40;;;;;;;22.54;65.41;101437.53;4997617;28;20579;-95
2022/08/26 08:45:56;;;;;;;10.20;4.32;;;;;;;22.65;64.87;101441.94;4995980;28;20038;-94
2022/08/26 08:48:26;;;;;;;6.53;2.45;;;;;;;22.64;64.54;101432.09;4997749;28;20039;-94
2022/08/26 08:50:54;;;;;;;4.10;1.50;;;;;;;22.61;64.86;101441.38;4991789;28;20125;-94
2022/08/26 08:53:27;;;;;;;2.88;1.75;;;;;;;22.49;65.07;101439.81;4998558;28;20495;-94
2022/08/26 08:56:14;;;;;;;4.97;1.50;;;;;;;22.50;65.42;101436.09;5011116;28;20176;-92
2022/08/26 08:59:14;;;;;;;3.90;1.70;;;;;;;22.50;65.52;101444.22;4993878;28;20057;-94
2022/08/26 09:01:50;;;;;;;3.75;1.40;;;;;;;22.26;66.36;101436.47;4960480;28;20073;-96
2022/08/26 09:04:30;;;;;;;2.80;1.50;;;;;;;22.10;66.84;101436.09;4986809;28;20035;-96
2022/08/26 09:06:58;;;;;;;5.30;1.38;;;;;;;21.98;66.58;101420.94;4994032;28;20030;-96
2022/08/26 09:09:36;;;;;;;5.60;1.95;;;;;;;22.14;66.56;101426.72;4995074;28;20031;-94
2022/08/26 09:12:03;;;;;;;6.45;1.90;;;;;;;22.28;66.67;101444.44;4998524;28;20176;-94
2022/08/26 09:14:30;;;;;;;6.32;2.97;;;;;;;22.18;66.58;101447.16;4987964;28;20046;-95
2022/08/26 09:17:17;;;;;;;5.30;1.50;;;;;;;22.12;66.61;101456.69;4976578;28;20039;-96
2022/08/26 09:19:50;;;;;;;5.97;1.38;;;;;;;22.06;66.14;101427.38;4978822;28;20069;-95
2022/08/26 09:22:30;;;;;;;3.45;1.40;;;;;;;22.24;65.82;101449.31;4975966;28;20081;-93
2022/08/26 09:27:42;;;;;;;4.70;1.50;;;;;;;22.08;64.74;101414.56;4967619;28;20055;-95
2022/08/26 09:30:10;;;;;;;5.75;1.40;;;;;;;22.39;64.99;101449.75;4966904;28;20030;-96
2022/08/26 09:32:39;;;;;;;5.90;1.58;;;;;;;22.50;64.24;101432.53;4962211;28;20409;-95
2022/08/26 09:35:23;;;;;;;4.47;1.27;;;;;;;22.66;63.52;101462.66;4959186;28;20035;-94
2022/08/26 09:37:48;;;;;;;4.35;1.40;;;;;;;22.78;63.18;101436.22;4942706;29;20023;-94
2022/08/26 09:40:34;;;;;;;6.88;1.90;;;;;;;22.97;63.17;101460.69;4956652;29;20015;-95
2022/08/26 09:43:18;;;;;;;4.85;1.95;;;;;;;22.99;62.90;101450.56;4967562;29;20042;-95
2022/08/26 09:45:46;;;;;;;4.85;1.30;;;;;;;22.86;63.03;101458.94;4956821;28;20071;-94
2022/08/26 09:48:34;;;;;;;3.90;1.05;;;;;;;23.01;63.27;101461.28;4954316;28;20023;-96
2022/08/26 09:51:02;;;;;;;4.80;1.42;;;;;;;22.96;62.30;101455.41;4961258;28;20031;-96
2022/08/26 09:53:31;;;;;;;5.65;1.45;;;;;;;22.94;62.19;101469.13;4955189;29;20034;-94
2022/08/26 09:56:37;;;;;;;4.65;1.25;;;;;;;22.94;62.27;101465.53;4957469;28;20039;-92
2022/08/26 09:59:07;;;;;;;5.70;1.40;;;;;;;22.55;63.02;101460.06;4862601;29;20120;-94
2022/08/26 10:01:52;;;;;;;7.90;3.20;;;;;;;22.55;63.71;101463.63;4869940;29;20112;-93
2022/08/26 10:04:23;;;;;;;9.43;4.20;;;;;;;22.51;63.55;101470.34;4891384;29;20098;-95
2022/08/26 10:07:00;;;;;;;4.35;1.50;;;;;;;22.34;63.85;101455.63;4900279;29;20028;-95
2022/08/26 10:09:28;;;;;;;4.70;1.77;;;;;;;22.41;64.51;101472.19;4906560;29;20056;-95
2022/08/26 10:12:02;;;;;;;6.50;1.60;;;;;;;22.41;64.37;101468.63;4887337;29;20032;-94
2022/08/26 10:14:29;;;;;;;;;;;;;;;22.60;63.60;101465.94;4893667;29;20037;-95
2022/08/26 10:17:03;;;;;;;7.18;1.45;;;;;;;22.51;63.80;101466.78;4888436;29;19931;-96
2022/08/26 10:19:37;;;;;;;7.13;1.40;;;;;;;22.34;63.76;101450.19;4873247;29;20041;-94
2022/08/26 10:22:11;;;;;;;7.28;1.58;;;;;;;22.44;63.84;101454.75;4889321;29;20021;-96
2022/08/26 10:24:41;;;;;;;6.00;1.40;;;;;;;22.50;63.89;101467.78;4892213;29;20040;-95
2022/08/26 10:27:15;;;;;;;8.98;1.48;;;;;;;22.34;64.41;101461.03;4878499;29;20069;-94
2022/08/26 10:29:47;;;;;;;8.60;1.75;;;;;;;22.18;65.14;101463.41;4927618;29;20521;-94
2022/08/26 10:32:30;;;;;;;5.40;1.70;;;;;;;22.12;65.43;101461.25;4958685;29;20039;-96
2022/08/26 10:34:56;;;;;;;6.03;1.60;;;;;;;22.01;65.50;101464.03;4942597;29;20381;-94
2022/08/26 10:37:54;;;;;;;6.85;2.03;;;;;;;22.09;65.79;101461.50;4957707;29;20042;-94
2022/08/26 10:40:28;;;;;;;4.88;1.73;;;;;;;22.24;65.48;101457.47;4942063;29;20397;-92
2022/08/26 10:43:09;;;;;;;6.28;1.77;;;;;;;22.39;65.33;101455.19;4955971;28;20497;-94
2022/08/26 10:45:42;;;;;;;6.38;1.90;;;;;;;22.42;64.13;101451.34;4947473;28;20120;-94
2022/08/26 10:48:16;;;;;;;5.90;1.48;;;;;;;22.48;64.73;101454.34;4942583;29;20118;-94
2022/08/26 10:50:45;;;;;;;5.18;1.80;;;;;;;22.59;64.07;101464.22;4961390;29;20020;-94
2022/08/26 10:53:22;;;;;;;4.53;1.45;;;;;;;22.64;63.95;101467.34;4961428;29;20003;-95
2022/08/26 10:56:06;;;;;;;6.55;1.80;;;;;;;22.76;63.58;101459.94;4925544;28;20024;-95
2022/08/26 10:58:50;;;;;;;6.97;1.75;;;;;;;23.03;62.83;101449.28;4965460;28;20035;-93
2022/08/26 11:01:45;;;;;;;6.28;1.67;;;;;;;23.20;61.89;101469.41;4952473;28;20051;-95
2022/08/26 11:04:22;;;;;;;7.90;1.55;;;;;;;23.19;61.99;101464.94;4948879;28;20039;-94
2022/08/26 11:06:48;;;;;;;10.32;1.98;;;;;;;23.01;62.14;101455.84;4960743;28;20059;-94
2022/08/26 11:09:44;;;;;;;6.63;1.60;;;;;;;23.05;62.16;101471.69;4948940;29;20028;-95
2022/08/26 11:12:35;;;;;;;7.97;2.10;;;;;;;23.05;62.15;101468.97;5101185;23;20030;-94
2022/08/26 11:15:20;;;;;;;5.97;1.58;;;;;;;23.17;61.68;101464.25;4981599;28;20069;-93
2022/08/26 11:17:48;;;;;;;6.90;1.88;;;;;;;23.16;61.22;101469.81;5002937;28;20035;-96
2022/08/26 11:20:32;;;;;;;6.40;2.03;;;;;;;23.04;61.69;101463.69;5044101;23;20479;-93
2022/08/26 11:23:25;;;;;;;5.70;1.52;;;;;;;23.07;61.90;101466.09;4980258;28;20030;-95
2022/08/26 11:26:08;;;;;;;9.07;1.90;;;;;;;22.86;61.95;101460.78;4936144;28;20043;-90
2022/08/26 11:28:48;;;;;;;8.45;1.60;;;;;;;22.86;62.47;101461.66;4974861;28;20043;-90
2022/08/26 11:31:23;;;;;;;4.78;1.65;;;;;;;22.75;62.68;101461.81;4975229;28;20061;-90
2022/08/26 11:33:56;;;;;;;6.00;1.90;;;;;;;22.60;62.50;101457.78;4973441;28;20011;-92
2022/08/26 11:36:47;;;;;;;6.32;1.85;;;;;;;22.57;62.95;101468.91;4974812;28;20035;-90
2022/08/26 11:39:47;;;;;;;6.65;1.83;;;;;;;22.57;63.29;101460.78;4975389;28;20110;-89
2022/08/26 11:42:38;;;;;;;6.05;1.55;;;;;;;22.53;63.04;101468.38;4980736;28;20046;-90